createdAt,value
2023-04-19T00:00:42.676Z,98642.00
2023-04-19T00:04:45.514Z,98631.00
2023-04-19T00:08:46.785Z,98641.00
2023-04-19T00:12:47.751Z,98631.00
2023-04-19T00:16:48.940Z,98633.00
2023-04-19T00:20:50.392Z,98622.00
2023-04-19T00:24:51.424Z,98618.00
2023-04-19T00:28:52.619Z,98620.00
2023-04-19T00:32:53.683Z,98623.00
2023-04-19T00:36:56.058Z,98619.00
2023-04-19T00:40:59.071Z,98611.00
2023-04-19T00:45:00.048Z,98608.00
2023-04-19T00:49:01.465Z,98623.00
2023-04-19T00:53:02.586Z,98594.00
2023-04-19T00:57:03.848Z,98593.00
2023-04-19T01:01:05.638Z,98590.00
2023-04-19T01:05:07.348Z,98581.00
2023-04-19T01:09:08.843Z,98588.00
2023-04-19T01:13:09.842Z,98579.00
2023-04-19T01:17:12.918Z,98560.00
2023-04-19T01:21:13.839Z,98570.00
2023-04-19T01:25:15.161Z,98566.00
2023-04-19T01:29:18.069Z,98560.00
2023-04-19T01:33:20.149Z,98557.00
2023-04-19T01:37:21.262Z,98554.00
2023-04-19T01:41:24.265Z,98550.00
2023-04-19T01:45:25.324Z,98550.00
2023-04-19T01:49:26.528Z,98553.00
2023-04-19T01:53:27.620Z,98545.00
2023-04-19T01:57:28.575Z,98508.00
2023-04-19T02:01:29.984Z,98545.00
2023-04-19T02:05:31.096Z,98548.00
2023-04-19T02:09:53.961Z,98543.00
2023-04-19T02:13:55.098Z,98541.00
2023-04-19T02:17:56.292Z,98529.00
2023-04-19T02:21:57.522Z,98529.00
2023-04-19T02:25:58.570Z,98527.00
2023-04-19T02:29:59.634Z,98524.00
2023-04-19T02:34:00.637Z,98520.00
2023-04-19T02:38:02.646Z,98523.00
2023-04-19T02:42:03.603Z,98531.00
2023-04-19T02:46:05.439Z,98513.00
2023-04-19T02:50:07.209Z,98501.00
2023-04-19T02:54:08.391Z,98516.00
2023-04-19T02:58:09.335Z,98491.00
2023-04-19T03:02:10.553Z,98517.00
2023-04-19T03:06:11.578Z,98512.00
2023-04-19T03:10:12.778Z,98521.00
2023-04-19T03:14:13.874Z,98499.00
2023-04-19T03:18:16.636Z,98497.00
2023-04-19T03:22:17.726Z,98502.00
2023-04-19T03:26:18.708Z,98490.00
2023-04-19T03:30:19.759Z,98500.00
2023-04-19T03:34:20.946Z,98500.00
2023-04-19T03:38:21.902Z,98491.00
2023-04-19T03:42:23.090Z,98491.00
2023-04-19T03:46:24.466Z,98498.00
2023-04-19T03:50:25.614Z,98482.00
2023-04-19T03:54:26.590Z,98473.00
2023-04-19T03:58:27.724Z,98469.00
2023-04-19T04:02:28.703Z,98477.00
2023-04-19T04:06:29.774Z,98477.00
2023-04-19T04:10:31.125Z,98465.00
2023-04-19T04:14:32.299Z,98479.00
2023-04-19T04:18:33.376Z,98487.00
2023-04-19T04:22:34.877Z,98477.00
2023-04-19T04:26:37.892Z,98488.00
2023-04-19T04:30:40.084Z,98488.00
2023-04-19T04:34:42.346Z,98480.00
2023-04-19T04:38:44.156Z,98485.00
2023-04-19T04:42:45.280Z,98492.00
2023-04-19T04:46:46.280Z,98489.00
2023-04-19T04:50:47.489Z,98479.00
2023-04-19T04:54:48.643Z,98478.00
2023-04-19T04:58:49.895Z,98479.00
2023-04-19T05:02:51.146Z,98484.00
2023-04-19T05:06:52.236Z,98476.00
2023-04-19T05:10:53.443Z,98475.00
2023-04-19T05:14:54.683Z,98319.00
2023-04-19T05:18:55.957Z,98478.00
2023-04-19T05:22:58.061Z,98476.00
2023-04-19T05:26:59.217Z,98476.00
2023-04-19T05:31:00.271Z,98478.00
2023-04-19T05:35:01.216Z,98466.00
2023-04-19T05:39:02.374Z,98453.00
2023-04-19T05:43:03.503Z,98309.00
2023-04-19T05:47:04.703Z,98450.00
2023-04-19T05:51:06.117Z,98471.00
2023-04-19T05:55:07.683Z,98463.00
2023-04-19T05:59:10.746Z,98465.00
2023-04-19T06:03:12.296Z,98482.00
2023-04-19T06:07:27.364Z,98488.00
2023-04-19T06:11:26.455Z,98474.00
2023-04-19T06:15:20.406Z,98461.00
2023-04-19T06:19:21.506Z,98471.00
2023-04-19T06:23:23.342Z,98461.00
2023-04-19T06:27:24.440Z,98467.00
2023-04-19T06:31:25.658Z,98469.00
2023-04-19T06:35:26.922Z,98475.00
2023-04-19T06:39:28.181Z,98472.00
2023-04-19T06:43:29.182Z,98465.00
2023-04-19T06:47:30.233Z,98460.00
2023-04-19T06:51:32.971Z,98468.00
2023-04-19T06:55:34.360Z,98467.00
2023-04-19T06:59:37.277Z,98444.00
2023-04-19T07:03:38.492Z,98461.00
2023-04-19T07:07:40.804Z,98466.00
2023-04-19T07:11:42.231Z,98445.00
2023-04-19T07:15:43.461Z,98439.00
2023-04-19T07:19:49.396Z,98443.00
2023-04-19T07:23:50.391Z,98417.00
2023-04-19T07:27:56.066Z,98423.00
2023-04-19T07:31:59.153Z,98428.00
2023-04-19T07:36:00.158Z,98423.00
2023-04-19T07:40:01.382Z,98439.00
2023-04-19T07:44:02.598Z,98429.00
2023-04-19T07:48:04.177Z,98426.00
2023-04-19T07:52:07.403Z,98401.00
2023-04-19T08:06:55.919Z,98422.00
2023-04-19T08:10:57.058Z,98431.00
2023-04-19T08:15:05.225Z,98424.00
2023-04-19T08:19:01.132Z,98435.00
2023-04-19T08:23:14.029Z,98423.00
2023-04-19T08:27:05.774Z,98438.00
2023-04-19T08:31:07.416Z,98425.00
2023-04-19T08:35:09.346Z,98426.00
2023-04-19T08:39:20.855Z,98430.00
2023-04-19T08:43:17.790Z,98432.00
2023-04-19T08:47:30.314Z,98427.00
2023-04-19T08:51:22.999Z,98429.00
2023-04-19T08:55:24.590Z,98424.00
2023-04-19T08:59:26.030Z,98426.00
2023-04-19T09:03:27.320Z,98435.00
2023-04-19T09:07:28.788Z,98404.00
2023-04-19T09:11:38.650Z,98435.00
2023-04-19T09:15:41.334Z,98418.00
2023-04-19T09:19:49.681Z,98418.00
2023-04-19T09:23:51.024Z,98390.00
2023-04-19T09:27:52.162Z,98415.00
2023-04-19T09:32:00.093Z,98432.00
2023-04-19T09:36:02.292Z,98410.00
2023-04-19T09:40:24.634Z,98418.00
2023-04-19T09:48:28.639Z,98408.00
2023-04-19T10:07:41.737Z,98377.00
2023-04-19T10:11:51.183Z,98384.00
2023-04-19T10:15:55.558Z,98389.00
2023-04-19T10:20:01.563Z,98386.00
2023-04-19T10:24:04.127Z,98264.00
2023-04-19T10:28:05.484Z,98368.00
2023-04-19T10:32:06.846Z,98354.00
2023-04-19T10:47:15.514Z,98343.00
2023-04-19T10:51:19.910Z,98352.00
2023-04-19T11:33:45.930Z,98312.00
2023-04-19T11:37:47.184Z,98297.00
2023-04-19T11:41:48.247Z,98298.00
2023-04-19T11:45:49.320Z,98296.00
2023-04-19T11:49:50.359Z,98294.00
2023-04-19T11:53:51.431Z,98296.00
2023-04-19T11:57:52.416Z,98297.00
2023-04-19T12:01:53.393Z,98293.00
2023-04-19T12:05:56.137Z,98272.00
2023-04-19T12:10:01.042Z,98275.00
2023-04-19T12:14:11.278Z,98271.00
2023-04-19T12:38:28.632Z,98248.00
2023-04-19T12:42:29.768Z,98260.00
2023-04-19T12:46:31.062Z,98243.00
2023-04-19T12:50:32.118Z,98257.00
2023-04-19T12:54:33.142Z,98248.00
2023-04-19T12:58:34.296Z,98237.00
2023-04-19T13:02:35.475Z,98231.00
2023-04-19T13:06:38.025Z,98232.00
2023-04-19T13:10:39.144Z,98245.00
2023-04-19T13:14:40.328Z,98232.00
2023-04-19T13:18:41.343Z,98214.00
2023-04-19T13:22:42.479Z,98230.00
2023-04-19T13:26:45.591Z,98209.00
2023-04-19T13:30:46.606Z,98210.00
2023-04-19T13:34:47.887Z,98217.00
2023-04-19T13:38:49.032Z,98222.00
2023-04-19T13:42:50.013Z,98212.00
2023-04-19T13:46:51.406Z,98206.00
2023-04-19T13:50:54.490Z,98077.00
2023-04-19T13:54:55.846Z,98204.00
2023-04-19T13:58:57.040Z,98199.00
2023-04-19T14:02:58.224Z,98212.00
2023-04-19T14:06:59.430Z,98192.00
2023-04-19T14:11:00.869Z,98200.00
2023-04-19T14:15:02.308Z,98183.00
2023-04-19T14:19:03.473Z,98177.00
2023-04-19T14:23:04.504Z,98182.00
2023-04-19T14:27:10.886Z,98178.00
2023-04-19T14:31:08.361Z,98192.00
2023-04-19T14:35:10.648Z,98181.00
2023-04-19T14:39:11.626Z,98164.00
2023-04-19T14:43:15.821Z,98151.00
2023-04-19T14:47:17.025Z,98153.00
2023-04-19T14:51:18.131Z,98153.00
2023-04-19T14:55:19.252Z,98151.00
2023-04-19T14:59:20.524Z,98164.00
2023-04-19T15:03:21.887Z,98155.00
2023-04-19T15:07:23.023Z,98146.00
2023-04-19T15:11:24.105Z,98153.00
2023-04-19T15:15:25.185Z,98156.00
2023-04-19T15:19:27.524Z,98154.00
2023-04-19T15:23:28.497Z,98149.00
2023-04-19T15:27:29.737Z,98151.00
2023-04-19T15:31:31.159Z,98165.00
2023-04-19T15:35:32.208Z,98149.00
2023-04-19T15:39:33.473Z,98160.00
2023-04-19T15:43:34.403Z,98172.00
2023-04-19T15:47:35.616Z,98135.00
2023-04-19T15:51:37.734Z,98149.00
2023-04-19T15:55:40.722Z,98151.00
2023-04-19T15:59:41.826Z,98156.00
2023-04-19T16:03:44.297Z,98154.00
2023-04-19T16:07:45.701Z,98156.00
2023-04-19T16:11:46.593Z,98159.00
2023-04-19T16:15:47.518Z,98158.00
2023-04-19T16:19:48.509Z,98156.00
2023-04-19T16:23:49.433Z,98157.00
2023-04-19T16:27:50.704Z,98177.00
2023-04-19T16:31:52.381Z,98202.00
2023-04-19T16:35:53.814Z,98163.00
2023-04-19T16:39:54.988Z,98155.00
2023-04-19T16:43:56.400Z,98164.00
2023-04-19T16:47:57.760Z,98156.00
2023-04-19T16:51:58.927Z,98158.00
2023-04-19T16:56:01.819Z,98151.00
2023-04-19T17:00:05.082Z,98159.00
2023-04-19T17:04:06.387Z,98158.00
2023-04-19T17:08:07.445Z,98145.00
2023-04-19T17:12:08.546Z,98130.00
2023-04-19T17:16:09.552Z,98143.00
2023-04-19T17:20:11.099Z,98118.00
2023-04-19T17:24:12.431Z,98136.00
2023-04-19T17:28:13.412Z,98143.00
2023-04-19T17:32:14.525Z,98127.00
2023-04-19T17:36:15.737Z,98143.00
2023-04-19T17:40:17.338Z,98145.00
2023-04-19T17:44:18.438Z,98155.00
2023-04-19T17:48:19.376Z,98145.00
2023-04-19T17:52:20.573Z,98156.00
2023-04-19T17:56:21.825Z,98145.00
2023-04-19T18:00:23.014Z,98151.00
2023-04-19T18:04:24.340Z,98149.00
2023-04-19T18:08:25.542Z,98153.00
2023-04-19T18:12:27.145Z,98163.00
2023-04-19T18:16:28.340Z,98160.00
2023-04-19T18:20:29.865Z,98158.00
2023-04-19T18:24:31.831Z,98156.00
2023-04-19T18:28:34.762Z,98155.00
2023-04-19T18:32:36.997Z,98157.00
2023-04-19T18:36:38.023Z,98156.00
2023-04-19T18:40:38.992Z,98168.00
2023-04-19T18:44:53.016Z,98155.00
2023-04-19T18:48:42.913Z,98158.00
2023-04-19T18:52:43.900Z,98162.00
2023-04-19T19:00:49.348Z,98161.00
2023-04-19T19:04:57.736Z,98170.00
2023-04-19T19:08:54.833Z,98176.00
2023-04-19T19:12:56.006Z,98173.00
2023-04-19T19:16:57.072Z,98173.00
2023-04-19T19:21:02.493Z,98181.00
2023-04-19T19:25:04.071Z,98178.00
2023-04-19T19:29:06.193Z,98185.00
2023-04-19T19:33:07.456Z,98189.00
2023-04-19T19:37:08.539Z,98187.00
2023-04-19T19:41:55.236Z,98177.00
2023-04-19T19:45:13.348Z,98178.00
2023-04-19T19:49:14.764Z,98174.00
2023-04-19T19:53:16.733Z,98183.00
2023-04-19T20:01:22.568Z,98171.00
2023-04-19T20:05:24.196Z,98177.00
2023-04-19T20:09:27.459Z,98179.00
2023-04-19T20:13:28.750Z,98180.00
2023-04-19T20:17:29.996Z,98175.00
2023-04-19T20:21:31.930Z,98173.00
2023-04-19T20:25:33.160Z,97844.00
2023-04-19T20:29:34.172Z,98166.00
2023-04-19T20:33:35.157Z,98166.00
2023-04-19T20:37:39.808Z,98168.00
2023-04-19T20:41:40.892Z,98170.00
2023-04-19T20:45:42.157Z,98164.00
2023-04-19T20:49:43.257Z,98157.00
2023-04-19T20:53:44.289Z,98159.00
2023-04-19T20:57:45.300Z,98164.00
2023-04-19T21:01:46.341Z,98156.00
2023-04-19T21:05:47.539Z,98154.00
2023-04-19T21:09:48.695Z,98151.00
2023-04-19T21:13:49.658Z,98150.00
2023-04-19T21:17:50.937Z,98152.00
2023-04-19T21:21:52.111Z,98148.00
2023-04-19T21:25:53.346Z,98139.00
2023-04-19T21:29:54.625Z,98141.00
2023-04-19T21:33:55.943Z,98137.00
2023-04-19T21:37:57.202Z,98132.00
2023-04-19T21:41:58.847Z,98151.00
2023-04-19T21:46:01.127Z,98128.00
2023-04-19T21:50:02.445Z,98123.00
2023-04-19T21:54:03.759Z,98143.00
2023-04-19T21:58:05.107Z,98113.00
2023-04-19T22:02:08.426Z,98110.00
2023-04-19T22:06:09.881Z,98099.00
2023-04-19T22:10:12.893Z,98093.00
2023-04-19T22:14:14.033Z,98106.00
2023-04-19T22:18:16.462Z,98095.00
2023-04-19T22:22:17.603Z,98089.00
2023-04-19T22:26:20.303Z,98107.00
2023-04-19T22:30:21.424Z,98083.00
2023-04-19T22:34:22.335Z,98086.00
2023-04-19T22:38:23.634Z,98081.00
2023-04-19T22:42:24.731Z,98073.00
2023-04-19T22:46:25.693Z,98073.00
2023-04-19T22:50:27.946Z,98069.00
2023-04-19T22:54:28.910Z,98069.00
2023-04-19T22:58:30.030Z,98058.00
2023-04-19T23:02:31.247Z,98056.00
2023-04-19T23:06:32.277Z,98054.00
2023-04-19T23:10:35.273Z,98058.00
2023-04-19T23:14:38.167Z,98048.00
2023-04-19T23:18:39.640Z,98037.00
2023-04-19T23:22:40.911Z,98035.00
2023-04-19T23:26:41.852Z,98025.00
2023-04-19T23:30:42.725Z,98018.00
2023-04-19T23:34:43.880Z,98013.00
2023-04-19T23:38:44.945Z,98008.00
2023-04-19T23:42:45.882Z,98009.00
2023-04-19T23:46:46.865Z,98007.00
2023-04-19T23:50:47.764Z,97996.00
2023-04-19T23:54:49.159Z,97997.00
2023-04-19T23:58:50.108Z,97989.00
